KANW/ANW METAR and TAF weather

Enter ICAO airport designator
Station Type Date Time Source
KANW METAR 2020/02/25 00:55 UTC NOAA

KANW 250055Z AUTO 11006KT 10SM OVC046 02/M03 A2985 RMK AO2 T00221032


Station Type Date Time Source
KANW Decoded METAR 2020/02/25 00:55 UTC NOAA

Ainsworth Municipal, NE, United States (KANW) 42-35N 100-00W
Feb 24, 2020 - 07:55 PM EST / 2020.02.25 0055 UTC
Wind: from the ESE (110 degrees) at 7 MPH (6 KT):0
Visibility: 10 mile(s):0
Sky conditions: overcast
Temperature: 36.0 F (2.2 C)
Dew Point: 26.2 F (-3.2 C)
Relative Humidity: 67%
Pressure (altimeter): 29.85 in. Hg (1010 hPa)
ob: KANW 250055Z AUTO 11006KT 10SM OVC046 02/M03 A2985 RMK AO2 T00221032
cycle: 1

Station Type Date Time Source
KANW TAF UTC NOAA

Error!

Example: see airport list